sensor_id;sensor_type;location;lat;lon;timestamp;pressure;altitude;pressure_sealevel;temperature;humidity
10071;BME280;5074;53.720;10.014;2023-06-05T00:01:58;101964.09;;;11.51;100.00
10071;BME280;5074;53.720;10.014;2023-06-05T00:04:27;101964.16;;;11.46;100.00
10071;BME280;5074;53.720;10.014;2023-06-05T00:06:55;101957.00;;;11.49;100.00
10071;BME280;5074;53.720;10.014;2023-06-05T00:09:24;101955.34;;;11.41;100.00
10071;BME280;5074;53.720;10.014;2023-06-05T00:11:52;101953.75;;;11.33;100.00
10071;BME280;5074;53.720;10.014;2023-06-05T00:14:20;101966.41;;;11.23;100.00
10071;BME280;5074;53.720;10.014;2023-06-05T00:16:48;101959.34;;;11.19;100.00
10071;BME280;5074;53.720;10.014;2023-06-05T00:19:18;101959.19;;;11.26;100.00
10071;BME280;5074;53.720;10.014;2023-06-05T00:21:48;101963.13;;;11.08;100.00
10071;BME280;5074;53.720;10.014;2023-06-05T00:24:17;101969.66;;;10.90;100.00
10071;BME280;5074;53.720;10.014;2023-06-05T00:26:45;101966.19;;;10.85;100.00
10071;BME280;5074;53.720;10.014;2023-06-05T00:29:14;101961.53;;;10.97;100.00
10071;BME280;5074;53.720;10.014;2023-06-05T00:31:43;101959.59;;;11.05;100.00
10071;BME280;5074;53.720;10.014;2023-06-05T00:34:13;101963.25;;;11.01;100.00
10071;BME280;5074;53.720;10.014;2023-06-05T00:36:41;101957.09;;;10.95;100.00
10071;BME280;5074;53.720;10.014;2023-06-05T00:39:10;101953.59;;;10.93;100.00
10071;BME280;5074;53.720;10.014;2023-06-05T00:41:38;101959.97;;;10.83;100.00
10071;BME280;5074;53.720;10.014;2023-06-05T00:44:09;101963.00;;;10.65;100.00
10071;BME280;5074;53.720;10.014;2023-06-05T00:46:38;101962.09;;;10.64;100.00
10071;BME280;5074;53.720;10.014;2023-06-05T00:49:07;101958.38;;;10.73;100.00
10071;BME280;5074;53.720;10.014;2023-06-05T00:51:36;101956.56;;;10.75;100.00
10071;BME280;5074;53.720;10.014;2023-06-05T00:54:04;101966.28;;;10.81;100.00
10071;BME280;5074;53.720;10.014;2023-06-05T00:56:36;101959.16;;;10.80;100.00
10071;BME280;5074;53.720;10.014;2023-06-05T00:59:06;101956.78;;;10.61;100.00
10071;BME280;5074;53.720;10.014;2023-06-05T01:01:35;101956.00;;;10.56;100.00
10071;BME280;5074;53.720;10.014;2023-06-05T01:04:03;101953.31;;;10.57;100.00
10071;BME280;5074;53.720;10.014;2023-06-05T01:06:32;101945.13;;;10.67;100.00
10071;BME280;5074;53.720;10.014;2023-06-05T01:09:02;101946.88;;;10.69;100.00
10071;BME280;5074;53.720;10.014;2023-06-05T01:11:38;101948.81;;;10.59;100.00
10071;BME280;5074;53.720;10.014;2023-06-05T01:14:13;101942.88;;;10.40;100.00
10071;BME280;5074;53.720;10.014;2023-06-05T01:16:46;101947.63;;;10.18;100.00
10071;BME280;5074;53.720;10.014;2023-06-05T01:19:15;101937.94;;;10.13;100.00
10071;BME280;5074;53.720;10.014;2023-06-05T01:21:43;101946.94;;;10.02;100.00
10071;BME280;5074;53.720;10.014;2023-06-05T01:24:13;101946.13;;;9.99;100.00
10071;BME280;5074;53.720;10.014;2023-06-05T01:26:51;101935.50;;;9.96;100.00
10071;BME280;5074;53.720;10.014;2023-06-05T01:29:24;101943.59;;;9.89;100.00
10071;BME280;5074;53.720;10.014;2023-06-05T01:32:02;101941.63;;;10.01;100.00
10071;BME280;5074;53.720;10.014;2023-06-05T01:34:34;101940.56;;;10.14;100.00
10071;BME280;5074;53.720;10.014;2023-06-05T01:37:05;101945.00;;;10.14;100.00
10071;BME280;5074;53.720;10.014;2023-06-05T01:39:37;101937.81;;;10.19;100.00
10071;BME280;5074;53.720;10.014;2023-06-05T01:42:08;101937.88;;;10.16;100.00
10071;BME280;5074;53.720;10.014;2023-06-05T01:44:37;101937.84;;;10.17;100.00
10071;BME280;5074;53.720;10.014;2023-06-05T01:47:06;101936.16;;;10.12;100.00
10071;BME280;5074;53.720;10.014;2023-06-05T01:49:34;101937.94;;;10.11;100.00
10071;BME280;5074;53.720;10.014;2023-06-05T01:52:02;101937.16;;;10.04;100.00
10071;BME280;5074;53.720;10.014;2023-06-05T01:54:30;101935.38;;;10.03;100.00
10071;BME280;5074;53.720;10.014;2023-06-05T01:57:02;101932.72;;;10.02;100.00
10071;BME280;5074;53.720;10.014;2023-06-05T01:59:31;101939.00;;;9.98;100.00
10071;BME280;5074;53.720;10.014;2023-06-05T02:02:00;101936.47;;;9.90;100.00
10071;BME280;5074;53.720;10.014;2023-06-05T02:04:30;101933.91;;;9.82;100.00
10071;BME280;5074;53.720;10.014;2023-06-05T02:06:59;101941.16;;;9.71;100.00
10071;BME280;5074;53.720;10.014;2023-06-05T02:09:30;101941.22;;;9.68;100.00
10071;BME280;5074;53.720;10.014;2023-06-05T02:12:01;101934.09;;;9.67;100.00
10071;BME280;5074;53.720;10.014;2023-06-05T02:14:30;101934.97;;;9.67;100.00
10071;BME280;5074;53.720;10.014;2023-06-05T02:17:02;101931.50;;;9.61;100.00
10071;BME280;5074;53.720;10.014;2023-06-05T02:19:31;101927.13;;;9.55;100.00
10071;BME280;5074;53.720;10.014;2023-06-05T02:21:59;101930.66;;;9.55;100.00
10071;BME280;5074;53.720;10.014;2023-06-05T02:24:27;101920.16;;;9.42;100.00
10071;BME280;5074;53.720;10.014;2023-06-05T02:26:55;101921.03;;;9.45;100.00
10071;BME280;5074;53.720;10.014;2023-06-05T02:29:26;101924.59;;;9.43;100.00
10071;BME280;5074;53.720;10.014;2023-06-05T02:31:54;101916.63;;;9.41;100.00
10071;BME280;5074;53.720;10.014;2023-06-05T02:34:22;101917.50;;;9.40;100.00
10071;BME280;5074;53.720;10.014;2023-06-05T02:36:51;101912.19;;;9.38;100.00
10071;BME280;5074;53.720;10.014;2023-06-05T02:39:20;101907.81;;;9.33;100.00
10071;BME280;5074;53.720;10.014;2023-06-05T02:41:47;101903.38;;;9.33;100.00
10071;BME280;5074;53.720;10.014;2023-06-05T02:44:16;101908.75;;;9.30;100.00
10071;BME280;5074;53.720;10.014;2023-06-05T02:46:45;101905.31;;;9.20;100.00
10071;BME280;5074;53.720;10.014;2023-06-05T02:49:13;101907.84;;;9.30;100.00
10071;BME280;5074;53.720;10.014;2023-06-05T02:51:42;101905.13;;;9.34;100.00
10071;BME280;5074;53.720;10.014;2023-06-05T02:54:10;101897.09;;;9.37;100.00
10071;BME280;5074;53.720;10.014;2023-06-05T02:56:38;101906.84;;;9.38;100.00
10071;BME280;5074;53.720;10.014;2023-06-05T02:59:07;101902.47;;;9.33;100.00
10071;BME280;5074;53.720;10.014;2023-06-05T03:01:36;101906.97;;;9.31;100.00
10071;BME280;5074;53.720;10.014;2023-06-05T03:04:05;101906.03;;;9.33;100.00
10071;BME280;5074;53.720;10.014;2023-06-05T03:06:34;101904.28;;;9.31;100.00
10071;BME280;5074;53.720;10.014;2023-06-05T03:09:02;101899.88;;;9.28;100.00
10071;BME280;5074;53.720;10.014;2023-06-05T03:11:30;101897.25;;;9.24;100.00
10071;BME280;5074;53.720;10.014;2023-06-05T03:13:58;101897.31;;;9.20;100.00
10071;BME280;5074;53.720;10.014;2023-06-05T03:16:26;101901.78;;;9.15;100.00
10071;BME280;5074;53.720;10.014;2023-06-05T03:19:00;101894.72;;;9.11;100.00
10071;BME280;5074;53.720;10.014;2023-06-05T03:21:29;101892.03;;;9.14;100.00
10071;BME280;5074;53.720;10.014;2023-06-05T03:23:57;101898.25;;;9.15;100.00
10071;BME280;5074;53.720;10.014;2023-06-05T03:26:26;101892.03;;;9.16;100.00
10071;BME280;5074;53.720;10.014;2023-06-05T03:28:54;101894.72;;;9.11;100.00
10071;BME280;5074;53.720;10.014;2023-06-05T03:31:22;101897.38;;;9.11;100.00
10071;BME280;5074;53.720;10.014;2023-06-05T03:33:50;101906.34;;;9.06;100.00
10071;BME280;5074;53.720;10.014;2023-06-05T03:36:19;101899.28;;;9.03;100.00
10071;BME280;5074;53.720;10.014;2023-06-05T03:38:48;101896.66;;;8.97;100.00
10071;BME280;5074;53.720;10.014;2023-06-05T03:41:16;101898.47;;;8.93;100.00
10071;BME280;5074;53.720;10.014;2023-06-05T03:43:45;101898.47;;;8.93;100.00
10071;BME280;5074;53.720;10.014;2023-06-05T03:46:13;101901.16;;;8.92;100.00
10071;BME280;5074;53.720;10.014;2023-06-05T03:48:45;101895.81;;;8.93;100.00
10071;BME280;5074;53.720;10.014;2023-06-05T03:51:13;101899.28;;;9.03;100.00
10071;BME280;5074;53.720;10.014;2023-06-05T03:53:45;101898.34;;;9.04;100.00
10071;BME280;5074;53.720;10.014;2023-06-05T03:56:14;101901.91;;;9.04;100.00
10071;BME280;5074;53.720;10.014;2023-06-05T03:58:42;101900.22;;;8.97;100.00
10071;BME280;5074;53.720;10.014;2023-06-05T04:01:12;101897.41;;;9.08;100.00
10071;BME280;5074;53.720;10.014;2023-06-05T04:03:40;101909.00;;;9.07;100.00
10071;BME280;5074;53.720;10.014;2023-06-05T04:06:09;101905.47;;;9.05;100.00
10071;BME280;5074;53.720;10.014;2023-06-05T04:08:37;101907.22;;;9.08;100.00
10071;BME280;5074;53.720;10.014;2023-06-05T04:11:05;101908.97;;;9.10;100.00
10071;BME280;5074;53.720;10.014;2023-06-05T04:13:36;101910.78;;;9.07;100.00
10071;BME280;5074;53.720;10.014;2023-06-05T04:16:04;101907.06;;;9.20;100.00
10071;BME280;5074;53.720;10.014;2023-06-05T04:18:33;101909.81;;;9.14;100.00
10071;BME280;5074;53.720;10.014;2023-06-05T04:21:01;101907.97;;;9.20;100.00
10071;BME280;5074;53.720;10.014;2023-06-05T04:23:29;101910.59;;;9.24;100.00
10071;BME280;5074;53.720;10.014;2023-06-05T04:25:57;101912.41;;;9.18;100.00
10071;BME280;5074;53.720;10.014;2023-06-05T04:28:25;101908.81;;;9.24;100.00
10071;BME280;5074;53.720;10.014;2023-06-05T04:30:55;101911.47;;;9.24;100.00
10071;BME280;5074;53.720;10.014;2023-06-05T04:33:23;101912.19;;;9.38;100.00
10071;BME280;5074;53.720;10.014;2023-06-05T04:35:51;101909.59;;;9.34;100.00
10071;BME280;5074;53.720;10.014;2023-06-05T04:38:20;101914.84;;;9.40;100.00
10071;BME280;5074;53.720;10.014;2023-06-05T04:40:49;101912.16;;;9.43;100.00
10071;BME280;5074;53.720;10.014;2023-06-05T04:43:20;101911.28;;;9.41;100.00
10071;BME280;5074;53.720;10.014;2023-06-05T04:45:49;101909.50;;;9.43;100.00
10071;BME280;5074;53.720;10.014;2023-06-05T04:48:19;101911.16;;;9.52;100.00
10071;BME280;5074;53.720;10.014;2023-06-05T04:50:47;101904.81;;;9.61;100.00
10071;BME280;5074;53.720;10.014;2023-06-05T04:53:16;101892.41;;;9.56;100.00
10071;BME280;5074;53.720;10.014;2023-06-05T04:55:45;101903.69;;;9.77;100.00
10071;BME280;5074;53.720;10.014;2023-06-05T04:58:13;101902.75;;;9.81;100.00
10071;BME280;5074;53.720;10.014;2023-06-05T05:00:42;101910.66;;;9.89;100.00
10071;BME280;5074;53.720;10.014;2023-06-05T05:03:11;101906.94;;;9.99;100.00
10071;BME280;5074;53.720;10.014;2023-06-05T05:05:41;101910.31;;;10.12;100.00
10071;BME280;5074;53.720;10.014;2023-06-05T05:08:09;101904.75;;;10.26;100.00
10071;BME280;5074;53.720;10.014;2023-06-05T05:10:38;101902.91;;;10.30;100.00
10071;BME280;5074;53.720;10.014;2023-06-05T05:13:06;101910.81;;;10.39;100.00
10071;BME280;5074;53.720;10.014;2023-06-05T05:15:34;101908.03;;;10.45;100.00
10071;BME280;5074;53.720;10.014;2023-06-05T05:18:02;101913.25;;;10.54;100.00
10071;BME280;5074;53.720;10.014;2023-06-05T05:20:30;101910.47;;;10.60;100.00
10071;BME280;5074;53.720;10.014;2023-06-05T05:23:02;101906.72;;;10.71;100.00
10071;BME280;5074;53.720;10.014;2023-06-05T05:25:30;101906.78;;;10.68;100.00
10071;BME280;5074;53.720;10.014;2023-06-05T05:27:58;101916.53;;;10.72;100.00
10071;BME280;5074;53.720;10.014;2023-06-05T05:30:26;101912.81;;;10.81;100.00
10071;BME280;5074;53.720;10.014;2023-06-05T05:32:56;101917.97;;;10.90;100.00
10071;BME280;5074;53.720;10.014;2023-06-05T05:35:24;101921.41;;;10.98;100.00
10071;BME280;5074;53.720;10.014;2023-06-05T05:37:52;101918.59;;;11.04;100.00
10071;BME280;5074;53.720;10.014;2023-06-05T05:40:22;101923.75;;;11.13;100.00
10071;BME280;5074;53.720;10.014;2023-06-05T05:42:50;101916.53;;;11.19;100.00
10071;BME280;5074;53.720;10.014;2023-06-05T05:45:18;101914.50;;;11.32;100.00
10071;BME280;5074;53.720;10.014;2023-06-05T05:47:46;101910.81;;;11.37;100.00
10071;BME280;5074;53.720;10.014;2023-06-05T05:50:14;101892.13;;;11.36;100.00
10071;BME280;5074;53.720;10.014;2023-06-05T05:52:42;101911.31;;;11.56;100.00
10071;BME280;5074;53.720;10.014;2023-06-05T05:55:11;101911.31;;;11.56;100.00
10071;BME280;5074;53.720;10.014;2023-06-05T05:57:42;101912.94;;;11.63;100.00
10071;BME280;5074;53.720;10.014;2023-06-05T06:00:11;101917.22;;;11.72;100.00
10071;BME280;5074;53.720;10.014;2023-06-05T06:02:40;101915.25;;;11.80;100.00
10071;BME280;5074;53.720;10.014;2023-06-05T06:05:09;101915.13;;;11.87;100.00
10071;BME280;5074;53.720;10.014;2023-06-05T06:07:39;101909.59;;;11.94;100.00
10071;BME280;5074;53.720;10.014;2023-06-05T06:10:10;101909.47;;;12.02;100.00
10071;BME280;5074;53.720;10.014;2023-06-05T06:12:39;101907.66;;;12.03;100.00
10071;BME280;5074;53.720;10.014;2023-06-05T06:15:09;101915.69;;;12.03;100.00
10071;BME280;5074;53.720;10.014;2023-06-05T06:17:38;101920.69;;;12.18;100.00
10071;BME280;5074;53.720;10.014;2023-06-05T06:20:07;101916.00;;;12.28;100.00
10071;BME280;5074;53.720;10.014;2023-06-05T06:22:40;101923.84;;;12.36;100.00
10071;BME280;5074;53.720;10.014;2023-06-05T06:25:10;101913.88;;;12.42;100.00
10071;BME280;5074;53.720;10.014;2023-06-05T06:27:38;101919.84;;;12.52;100.00
10071;BME280;5074;53.720;10.014;2023-06-05T06:30:09;101929.63;;;12.55;100.00
10071;BME280;5074;53.720;10.014;2023-06-05T06:32:37;101916.09;;;12.59;100.00
10071;BME280;5074;53.720;10.014;2023-06-05T06:35:06;101914.28;;;12.61;100.00
10071;BME280;5074;53.720;10.014;2023-06-05T06:37:34;101919.31;;;12.74;100.00
10071;BME280;5074;53.720;10.014;2023-06-05T06:40:04;101926.19;;;12.85;100.00
10071;BME280;5074;53.720;10.014;2023-06-05T06:42:35;101918.03;;;12.89;100.00
10071;BME280;5074;53.720;10.014;2023-06-05T06:45:04;101923.16;;;12.98;100.00
10071;BME280;5074;53.720;10.014;2023-06-05T06:47:34;101923.19;;;12.96;100.00
10071;BME280;5074;53.720;10.014;2023-06-05T06:50:02;101929.34;;;13.01;100.00
10071;BME280;5074;53.720;10.014;2023-06-05T06:52:31;101929.94;;;13.11;100.00
10071;BME280;5074;53.720;10.014;2023-06-05T06:54:59;101937.72;;;13.22;100.00
10071;BME280;5074;53.720;10.014;2023-06-05T06:57:27;101922.25;;;13.32;100.00
10071;BME280;5074;53.720;10.014;2023-06-05T06:59:56;101919.59;;;13.30;100.00
10071;BME280;5074;53.720;10.014;2023-06-05T07:02:24;101913.22;;;13.33;100.00
10071;BME280;5074;53.720;10.014;2023-06-05T07:04:54;101922.94;;;13.38;100.00
10071;BME280;5074;53.720;10.014;2023-06-05T07:07:22;101926.22;;;13.50;100.00
10071;BME280;5074;53.720;10.014;2023-06-05T07:09:51;101923.34;;;13.56;100.00
10071;BME280;5074;53.720;10.014;2023-06-05T07:12:20;101925.78;;;13.65;100.00
10071;BME280;5074;53.720;10.014;2023-06-05T07:14:49;101923.19;;;13.62;100.00
10071;BME280;5074;53.720;10.014;2023-06-05T07:17:17;101917.44;;;13.75;100.00
10071;BME280;5074;53.720;10.014;2023-06-05T07:19:46;101918.13;;;13.81;100.00
10071;BME280;5074;53.720;10.014;2023-06-05T07:22:15;101922.34;;;13.90;100.00
10071;BME280;5074;53.720;10.014;2023-06-05T07:24:43;101888.53;;;13.83;100.00
10071;BME280;5074;53.720;10.014;2023-06-05T07:27:12;101924.31;;;14.13;100.00
10071;BME280;5074;53.720;10.014;2023-06-05T07:29:40;101918.66;;;14.21;100.00
10071;BME280;5074;53.720;10.014;2023-06-05T07:32:08;101924.06;;;14.21;100.00
10071;BME280;5074;53.720;10.014;2023-06-05T07:34:36;101922.09;;;14.26;100.00
10071;BME280;5074;53.720;10.014;2023-06-05T07:37:05;101921.22;;;14.25;100.00
10071;BME280;5074;53.720;10.014;2023-06-05T07:39:36;101918.41;;;14.30;100.00
10071;BME280;5074;53.720;10.014;2023-06-05T07:42:04;101915.44;;;14.38;100.00
10071;BME280;5074;53.720;10.014;2023-06-05T07:44:33;101922.97;;;14.55;100.00
10071;BME280;5074;53.720;10.014;2023-06-05T07:47:01;101923.50;;;14.66;100.00
10071;BME280;5074;53.720;10.014;2023-06-05T07:49:30;101925.13;;;14.72;100.00
10071;BME280;5074;53.720;10.014;2023-06-05T07:51:59;101921.75;;;14.65;100.00
10071;BME280;5074;53.720;10.014;2023-06-05T07:54:27;101913.78;;;14.62;100.00
10071;BME280;5074;53.720;10.014;2023-06-05T07:56:57;101922.50;;;14.69;100.00
10071;BME280;5074;53.720;10.014;2023-06-05T07:59:26;101926.00;;;14.72;100.00
10071;BME280;5074;53.720;10.014;2023-06-05T08:01:55;101922.03;;;14.83;100.00
10071;BME280;5074;53.720;10.014;2023-06-05T08:04:23;101921.16;;;14.82;100.00
10071;BME280;5074;53.720;10.014;2023-06-05T08:06:54;101922.53;;;14.94;100.00
10071;BME280;5074;53.720;10.014;2023-06-05T08:09:23;101926.00;;;14.98;100.00
10071;BME280;5074;53.720;10.014;2023-06-05T08:11:51;101922.16;;;15.05;100.00
10071;BME280;5074;53.720;10.014;2023-06-05T08:14:20;101920.53;;;15.01;100.00
10071;BME280;5074;53.720;10.014;2023-06-05T08:16:48;101922.94;;;15.08;100.00
10071;BME280;5074;53.720;10.014;2023-06-05T08:19:19;101922.28;;;15.27;100.00
10071;BME280;5074;53.720;10.014;2023-06-05T08:21:50;101893.09;;;15.15;100.00
10071;BME280;5074;53.720;10.014;2023-06-05T08:24:19;101906.81;;;15.32;100.00
10071;BME280;5074;53.720;10.014;2023-06-05T08:26:47;101908.81;;;15.51;100.00
10071;BME280;5074;53.720;10.014;2023-06-05T08:29:15;101908.63;;;15.55;100.00
10071;BME280;5074;53.720;10.014;2023-06-05T08:31:44;101902.06;;;15.62;100.00
10071;BME280;5074;53.720;10.014;2023-06-05T08:34:13;101902.44;;;15.53;100.00
10071;BME280;5074;53.720;10.014;2023-06-05T08:36:41;101894.94;;;15.61;100.00
10071;BME280;5074;53.720;10.014;2023-06-05T08:39:09;101905.78;;;15.84;100.00
10071;BME280;5074;53.720;10.014;2023-06-05T08:41:38;101900.22;;;15.88;100.00
10071;BME280;5074;53.720;10.014;2023-06-05T08:44:06;101899.75;;;16.01;100.00
10071;BME280;5074;53.720;10.014;2023-06-05T08:46:36;101895.94;;;16.06;100.00
10071;BME280;5074;53.720;10.014;2023-06-05T08:49:08;101893.91;;;16.11;100.00
10071;BME280;5074;53.720;10.014;2023-06-05T08:51:39;101887.94;;;16.03;100.00
10071;BME280;5074;53.720;10.014;2023-06-05T08:54:09;101891.66;;;16.23;100.00
10071;BME280;5074;53.720;10.014;2023-06-05T08:56:41;101889.25;;;16.37;100.00
10071;BME280;5074;53.720;10.014;2023-06-05T08:59:10;101859.22;;;16.24;100.00
10071;BME280;5074;53.720;10.014;2023-06-05T09:01:41;101887.25;;;16.42;100.00
10071;BME280;5074;53.720;10.014;2023-06-05T09:04:12;101887.28;;;16.63;100.00
10071;BME280;5074;53.720;10.014;2023-06-05T09:06:45;101886.72;;;16.55;100.00
10071;BME280;5074;53.720;10.014;2023-06-05T09:09:14;101881.44;;;16.52;100.00
10071;BME280;5074;53.720;10.014;2023-06-05T09:11:42;101878.41;;;16.59;100.00
10071;BME280;5074;53.720;10.014;2023-06-05T09:14:11;101884.03;;;16.75;100.00
10071;BME280;5074;53.720;10.014;2023-06-05T09:16:40;101876.91;;;16.74;100.00
10071;BME280;5074;53.720;10.014;2023-06-05T09:19:11;101879.03;;;16.87;100.00
10071;BME280;5074;53.720;10.014;2023-06-05T09:21:40;101882.41;;;16.93;100.00
10071;BME280;5074;53.720;10.014;2023-06-05T09:24:14;101887.50;;;16.99;100.00
10071;BME280;5074;53.720;10.014;2023-06-05T09:27:01;101882.25;;;16.96;100.00
10071;BME280;5074;53.720;10.014;2023-06-05T09:29:32;101878.19;;;17.07;100.00
10071;BME280;5074;53.720;10.014;2023-06-05T09:32:02;101878.88;;;17.12;100.00
10071;BME280;5074;53.720;10.014;2023-06-05T09:34:33;101874.88;;;17.21;100.00
10071;BME280;5074;53.720;10.014;2023-06-05T09:37:03;101874.72;;;17.24;100.00
10071;BME280;5074;53.720;10.014;2023-06-05T09:39:34;101870.25;;;17.23;100.00
10071;BME280;5074;53.720;10.014;2023-06-05T09:42:02;101861.88;;;17.29;100.00
10071;BME280;5074;53.720;10.014;2023-06-05T09:44:32;101871.56;;;17.53;100.00
10071;BME280;5074;53.720;10.014;2023-06-05T09:47:03;101866.28;;;17.50;100.00
10071;BME280;5074;53.720;10.014;2023-06-05T09:49:46;101866.94;;;17.56;100.00
10071;BME280;5074;53.720;10.014;2023-06-05T09:52:16;101871.97;;;17.63;100.00
10071;BME280;5074;53.720;10.014;2023-06-05T09:54:45;101867.53;;;17.62;100.00
10071;BME280;5074;53.720;10.014;2023-06-05T09:57:15;101867.59;;;17.80;100.00
10071;BME280;5074;53.720;10.014;2023-06-05T09:59:46;101862.44;;;17.94;100.00
10071;BME280;5074;53.720;10.014;2023-06-05T10:02:19;101861.09;;;18.03;100.00
10071;BME280;5074;53.720;10.014;2023-06-05T10:04:52;101860.38;;;17.80;100.00
10071;BME280;5074;53.720;10.014;2023-06-05T10:07:22;101863.31;;;17.95;100.00
10071;BME280;5074;53.720;10.014;2023-06-05T10:09:51;101860.09;;;18.05;100.00
10071;BME280;5074;53.720;10.014;2023-06-05T10:12:19;101849.59;;;18.17;100.00
10071;BME280;5074;53.720;10.014;2023-06-05T10:14:49;101863.53;;;18.27;100.00
10071;BME280;5074;53.720;10.014;2023-06-05T10:17:17;101847.28;;;18.27;100.00
10071;BME280;5074;53.720;10.014;2023-06-05T10:19:46;101862.44;;;18.31;100.00
10071;BME280;5074;53.720;10.014;2023-06-05T10:22:17;101855.84;;;18.36;100.00
10071;BME280;5074;53.720;10.014;2023-06-05T10:24:46;101857.97;;;18.47;100.00
10071;BME280;5074;53.720;10.014;2023-06-05T10:27:37;101853.69;;;18.43;100.00
10071;BME280;5074;53.720;10.014;2023-06-05T10:30:38;101848.75;;;18.69;100.00
10071;BME280;5074;53.720;10.014;2023-06-05T10:33:25;101850.25;;;18.57;100.00
10071;BME280;5074;53.720;10.014;2023-06-05T10:36:05;101842.28;;;18.71;100.00
10071;BME280;5074;53.720;10.014;2023-06-05T10:38:39;101846.94;;;18.69;100.00
10071;BME280;5074;53.720;10.014;2023-06-05T10:41:08;101847.88;;;18.68;100.00
10071;BME280;5074;53.720;10.014;2023-06-05T10:43:45;101846.84;;;18.71;100.00
10071;BME280;5074;53.720;10.014;2023-06-05T10:46:39;101839.03;;;19.00;100.00
10071;BME280;5074;53.720;10.014;2023-06-05T10:49:09;101844.91;;;19.08;100.00
10071;BME280;5074;53.720;10.014;2023-06-05T10:51:39;101832.31;;;19.07;100.00
10071;BME280;5074;53.720;10.014;2023-06-05T10:54:12;101834.72;;;19.29;100.00
10071;BME280;5074;53.720;10.014;2023-06-05T10:56:57;101822.78;;;19.49;100.00
10071;BME280;5074;53.720;10.014;2023-06-05T10:59:27;101825.00;;;19.90;100.00
10071;BME280;5074;53.720;10.014;2023-06-05T11:02:25;101823.44;;;19.86;100.00
10071;BME280;5074;53.720;10.014;2023-06-05T11:05:07;101812.38;;;19.73;100.00
10071;BME280;5074;53.720;10.014;2023-06-05T11:07:37;101815.03;;;19.91;100.00
10071;BME280;5074;53.720;10.014;2023-06-05T11:10:09;101818.13;;;20.15;100.00
10071;BME280;5074;53.720;10.014;2023-06-05T11:13:03;101815.81;;;20.23;100.00
10071;BME280;5074;53.720;10.014;2023-06-05T11:15:41;101816.88;;;20.37;100.00
10071;BME280;5074;53.720;10.014;2023-06-05T11:18:33;101811.00;;;20.28;100.00
10071;BME280;5074;53.720;10.014;2023-06-05T11:21:03;101813.19;;;20.22;100.00
10071;BME280;5074;53.720;10.014;2023-06-05T11:23:31;101804.97;;;20.23;100.00
10071;BME280;5074;53.720;10.014;2023-06-05T11:29:17;101800.69;;;20.94;100.00
10071;BME280;5074;53.720;10.014;2023-06-05T11:31:46;101807.56;;;20.86;100.00
10071;BME280;5074;53.720;10.014;2023-06-05T11:34:14;101795.06;;;21.12;100.00
10071;BME280;5074;53.720;10.014;2023-06-05T11:36:43;101796.97;;;21.39;100.00
10071;BME280;5074;53.720;10.014;2023-06-05T11:39:11;101796.75;;;21.42;100.00
10071;BME280;5074;53.720;10.014;2023-06-05T11:41:44;101796.09;;;21.38;99.23
10071;BME280;5074;53.720;10.014;2023-06-05T11:44:13;101793.19;;;21.41;94.32
10071;BME280;5074;53.720;10.014;2023-06-05T11:46:43;101778.69;;;21.70;90.25
10071;BME280;5074;53.720;10.014;2023-06-05T11:49:28;101774.91;;;21.58;91.74
10071;BME280;5074;53.720;10.014;2023-06-05T11:51:57;101775.38;;;21.50;96.68
10071;BME280;5074;53.720;10.014;2023-06-05T11:54:26;101779.97;;;21.91;98.82
10071;BME280;5074;53.720;10.014;2023-06-05T11:56:57;101777.84;;;22.09;95.19
10071;BME280;5074;53.720;10.014;2023-06-05T11:59:26;101775.03;;;22.24;92.73
10071;BME280;5074;53.720;10.014;2023-06-05T12:01:56;101772.50;;;22.48;86.11
10071;BME280;5074;53.720;10.014;2023-06-05T12:04:24;101763.91;;;22.80;81.69
10071;BME280;5074;53.720;10.014;2023-06-05T12:06:53;101776.78;;;22.65;86.96
10071;BME280;5074;53.720;10.014;2023-06-05T12:09:22;101765.75;;;22.79;82.18
10071;BME280;5074;53.720;10.014;2023-06-05T12:11:50;101771.41;;;23.28;82.52
10071;BME280;5074;53.720;10.014;2023-06-05T12:14:29;101770.22;;;23.19;77.04
10071;BME280;5074;53.720;10.014;2023-06-05T12:17:00;101761.31;;;23.41;76.84
10071;BME280;5074;53.720;10.014;2023-06-05T12:19:29;101757.72;;;23.40;78.62
10071;BME280;5074;53.720;10.014;2023-06-05T12:22:05;101754.31;;;23.74;74.61
10071;BME280;5074;53.720;10.014;2023-06-05T12:24:33;101751.47;;;23.75;74.62
10071;BME280;5074;53.720;10.014;2023-06-05T12:27:03;101740.84;;;24.55;69.97
10071;BME280;5074;53.720;10.014;2023-06-05T12:29:34;101756.25;;;24.56;68.29
10071;BME280;5074;53.720;10.014;2023-06-05T12:32:19;101746.28;;;26.12;64.45
10071;BME280;5074;53.720;10.014;2023-06-05T12:34:48;101736.78;;;27.90;54.80
10071;BME280;5074;53.720;10.014;2023-06-05T12:37:29;101744.91;;;28.88;46.60
10071;BME280;5074;53.720;10.014;2023-06-05T12:40:00;101735.53;;;28.81;47.00
10071;BME280;5074;53.720;10.014;2023-06-05T12:42:33;101744.88;;;28.98;42.97
10071;BME280;5074;53.720;10.014;2023-06-05T12:45:03;101729.59;;;28.75;39.80
10071;BME280;5074;53.720;10.014;2023-06-05T12:47:33;101732.66;;;26.95;43.54
10071;BME280;5074;53.720;10.014;2023-06-05T12:50:02;101738.50;;;26.17;47.21
10071;BME280;5074;53.720;10.014;2023-06-05T12:52:31;101730.09;;;26.30;50.35
10071;BME280;5074;53.720;10.014;2023-06-05T12:55:01;101728.66;;;27.69;45.75
10071;BME280;5074;53.720;10.014;2023-06-05T12:57:30;101735.28;;;29.02;40.95
10071;BME280;5074;53.720;10.014;2023-06-05T12:59:59;101721.41;;;29.21;39.96
10071;BME280;5074;53.720;10.014;2023-06-05T13:02:27;101720.72;;;29.65;38.25